Terminal Aerodrome Forecast
Issued by NWS

Home | Current Version | Previous Version | Text Only | Print | Product List | Glossary On
Versions: 1 2 3 4 5 6 7 8 9 10 11 12 13 14 15 16
000
FTUS43 KIND 261100
TAFBMG
TAF
KBMG 261120Z 2612/2712 03011KT P6SM SCT040 BKN070
     FM261600 02011KT P6SM SCT040
     FM270100 35007KT P6SM SKC
      AMD LTD TO CLD VIS AND WIND TIL 261300=

USA.gov is the U.S. government's official web portal to all federal, state and local government web resources and services.